createdAt,value
2022-09-28T00:00:11.864Z,50.92
2022-09-28T00:01:11.882Z,43.51
2022-09-28T00:02:11.969Z,43.29
2022-09-28T00:03:11.980Z,43.45
2022-09-28T00:04:11.882Z,51.85
2022-09-28T00:05:11.843Z,55.23
2022-09-28T00:06:12.613Z,51.24
2022-09-28T00:07:11.807Z,59.23
2022-09-28T00:08:11.795Z,53.16
2022-09-28T00:09:11.815Z,52.18
2022-09-28T00:10:11.767Z,59.00
2022-09-28T00:11:11.773Z,45.41
2022-09-28T00:12:11.773Z,49.82
2022-09-28T00:13:11.806Z,43.40
2022-09-28T00:14:11.804Z,46.27
2022-09-28T00:15:11.768Z,66.34
2022-09-28T00:16:11.841Z,63.19
2022-09-28T00:17:11.740Z,61.23
2022-09-28T00:18:11.721Z,48.94
2022-09-28T00:19:11.729Z,58.26
2022-09-28T00:20:11.698Z,48.63
2022-09-28T00:21:11.706Z,54.55
2022-09-28T00:22:11.703Z,52.16
2022-09-28T00:23:11.723Z,50.71
2022-09-28T00:24:11.732Z,51.12
2022-09-28T00:25:11.701Z,51.44
2022-09-28T00:26:12.688Z,49.22
2022-09-28T00:27:11.691Z,58.75
2022-09-28T00:28:11.718Z,44.82
2022-09-28T00:29:11.642Z,55.18
2022-09-28T00:30:11.611Z,44.16
2022-09-28T00:31:11.723Z,48.54
2022-09-28T00:32:11.657Z,50.38
2022-09-28T00:33:11.611Z,55.42
2022-09-28T00:34:11.612Z,49.64
2022-09-28T00:35:11.600Z,50.83
2022-09-28T00:36:11.606Z,51.73
2022-09-28T00:37:11.585Z,43.23
2022-09-28T00:38:11.582Z,43.24
2022-09-28T00:39:11.571Z,43.50
2022-09-28T00:40:11.576Z,49.00
2022-09-28T00:41:11.690Z,54.73
2022-09-28T00:42:11.531Z,49.45
2022-09-28T00:43:11.579Z,43.26
2022-09-28T00:44:11.550Z,48.54
2022-09-28T00:45:11.580Z,52.95
2022-09-28T00:46:11.600Z,43.28
2022-09-28T00:47:11.509Z,43.29
2022-09-28T00:48:11.502Z,57.57
2022-09-28T00:49:11.630Z,43.50
2022-09-28T00:50:11.492Z,43.28
2022-09-28T00:51:11.501Z,43.29
2022-09-28T00:52:11.475Z,49.36
2022-09-28T00:53:11.562Z,43.45
2022-09-28T00:54:11.467Z,53.26
2022-09-28T00:55:11.462Z,43.58
2022-09-28T00:56:11.468Z,53.83
2022-09-28T00:57:11.444Z,47.88
2022-09-28T00:58:11.444Z,46.36
2022-09-28T00:59:11.457Z,44.12
2022-09-28T01:00:11.422Z,53.10
2022-09-28T01:01:11.444Z,49.52
2022-09-28T01:02:11.461Z,53.93
2022-09-28T01:03:11.416Z,43.54
2022-09-28T01:04:11.372Z,49.41
2022-09-28T01:05:11.386Z,43.13
2022-09-28T01:06:11.351Z,43.19
2022-09-28T01:07:11.362Z,43.50
2022-09-28T01:08:11.353Z,49.78
2022-09-28T01:09:11.351Z,49.56
2022-09-28T01:10:11.336Z,50.80
2022-09-28T01:11:11.323Z,43.23
2022-09-28T01:12:11.315Z,43.25
2022-09-28T01:13:11.324Z,51.29
2022-09-28T01:14:11.281Z,49.28
2022-09-28T01:15:11.289Z,48.60
2022-09-28T01:16:11.356Z,51.24
2022-09-28T01:17:12.283Z,43.30
2022-09-28T01:18:11.295Z,43.21
2022-09-28T01:19:11.322Z,43.21
2022-09-28T01:20:11.240Z,43.25
2022-09-28T01:21:11.277Z,55.28
2022-09-28T01:22:11.279Z,44.77
2022-09-28T01:23:11.290Z,52.08
2022-09-28T01:24:11.258Z,52.80
2022-09-28T01:25:11.275Z,49.18
2022-09-28T01:26:11.191Z,43.62
2022-09-28T01:27:11.157Z,43.41
2022-09-28T01:28:12.210Z,43.54
2022-09-28T01:29:11.190Z,43.36
2022-09-28T01:30:12.184Z,49.79
2022-09-28T01:31:11.244Z,44.06
2022-09-28T01:32:11.136Z,45.18
2022-09-28T01:33:11.151Z,54.51
2022-09-28T01:34:11.174Z,59.17
2022-09-28T01:35:11.166Z,48.84
2022-09-28T01:36:11.123Z,52.99
2022-09-28T01:37:11.190Z,47.82
2022-09-28T01:38:11.132Z,51.90
2022-09-28T01:39:11.123Z,49.33
2022-09-28T01:40:11.142Z,56.59
2022-09-28T01:41:11.092Z,59.68
2022-09-28T01:42:11.131Z,54.42
2022-09-28T01:43:11.052Z,56.33
2022-09-28T01:44:11.073Z,58.35
2022-09-28T02:03:39.257Z,62.95
2022-09-28T02:04:39.238Z,61.26
2022-09-28T02:05:39.236Z,59.69
2022-09-28T02:06:41.061Z,62.67
2022-09-28T02:07:40.413Z,57.41
2022-09-28T02:08:40.426Z,57.93
2022-09-28T02:09:40.404Z,57.90
2022-09-28T02:10:40.402Z,58.31
2022-09-28T02:11:40.460Z,57.96
2022-09-28T02:12:40.380Z,55.12
2022-09-28T02:13:40.391Z,55.72
2022-09-28T02:14:40.361Z,58.62
2022-09-28T02:15:40.334Z,65.83
2022-09-28T02:16:40.437Z,55.70
2022-09-28T02:17:40.958Z,59.56
2022-09-28T02:18:40.293Z,60.93
2022-09-28T02:19:40.428Z,60.85
2022-09-28T02:20:40.260Z,62.34
2022-09-28T02:21:40.304Z,60.64
2022-09-28T02:22:40.289Z,58.33
2022-09-28T02:23:40.282Z,55.44
2022-09-28T02:24:40.279Z,52.92
2022-09-28T02:25:40.236Z,53.29
2022-09-28T02:26:40.297Z,55.61
2022-09-28T02:27:40.237Z,58.09
2022-09-28T02:28:40.215Z,61.07
2022-09-28T02:29:40.224Z,53.96
2022-09-28T02:30:40.179Z,57.83
2022-09-28T02:31:40.816Z,49.27
2022-09-28T02:32:40.202Z,52.89
2022-09-28T02:33:40.173Z,52.11
2022-09-28T02:34:40.170Z,64.50
2022-09-28T02:35:40.149Z,58.02
2022-09-28T02:36:40.157Z,57.89
2022-09-28T02:37:40.143Z,45.81
2022-09-28T02:38:40.146Z,44.72
2022-09-28T02:39:40.168Z,55.06
2022-09-28T02:40:40.195Z,50.33
2022-09-28T02:41:40.087Z,51.77
2022-09-28T02:42:40.086Z,61.60
2022-09-28T02:43:40.095Z,53.85
2022-09-28T02:44:40.074Z,47.76
2022-09-28T02:45:40.372Z,61.55
2022-09-28T02:46:40.097Z,46.72
2022-09-28T02:47:40.079Z,44.39
2022-09-28T02:48:44.688Z,52.70
2022-09-28T02:49:42.187Z,70.33
2022-09-28T02:50:40.021Z,60.69
2022-09-28T02:51:40.050Z,47.65
2022-09-28T02:52:39.993Z,49.67
2022-09-28T02:53:39.993Z,65.62
2022-09-28T02:54:40.079Z,52.01
2022-09-28T02:55:40.000Z,50.34
2022-09-28T02:56:39.988Z,52.84
2022-09-28T02:57:39.965Z,45.36
2022-09-28T02:58:39.962Z,49.29
2022-09-28T02:59:39.949Z,55.31
2022-09-28T03:00:40.077Z,43.90
2022-09-28T03:01:40.017Z,51.23
2022-09-28T03:02:39.948Z,48.99
2022-09-28T03:03:39.955Z,45.90
2022-09-28T03:04:39.931Z,50.28
2022-09-28T03:05:39.931Z,59.13
2022-09-28T03:06:39.972Z,53.44
2022-09-28T03:10:50.452Z,66.58
2022-09-28T03:11:50.325Z,61.61
2022-09-28T03:12:52.593Z,59.48
2022-09-28T03:13:51.719Z,56.60
2022-09-28T03:14:52.395Z,64.81
2022-09-28T03:15:52.329Z,53.30
2022-09-28T03:16:51.628Z,62.03
2022-09-28T03:17:53.122Z,58.68
2022-09-28T03:18:52.118Z,60.31
2022-09-28T03:19:51.718Z,52.53
2022-09-28T03:20:51.588Z,54.89
2022-09-28T03:21:51.654Z,53.13
2022-09-28T03:23:12.748Z,63.37
2022-09-28T03:23:54.556Z,68.48
2022-09-28T03:24:51.664Z,61.50
2022-09-28T03:25:51.556Z,56.91
2022-09-28T03:26:51.501Z,52.06
2022-09-28T03:27:51.603Z,62.37
2022-09-28T03:28:53.102Z,61.30
2022-09-28T03:29:53.073Z,53.23
2022-09-28T03:30:52.108Z,64.70
2022-09-28T03:31:54.022Z,62.87
2022-09-28T03:32:51.348Z,67.63
2022-09-28T03:33:52.894Z,65.00
2022-09-28T03:34:51.670Z,69.32
2022-09-28T03:35:53.610Z,64.23
2022-09-28T03:36:53.596Z,69.84
2022-09-28T03:37:52.805Z,68.56
2022-09-28T03:38:52.208Z,70.18
2022-09-28T03:39:55.105Z,67.71
2022-09-28T03:40:52.574Z,68.06
2022-09-28T03:41:51.470Z,59.45
2022-09-28T03:42:52.104Z,66.55
2022-09-28T03:43:51.431Z,68.05
2022-09-28T03:44:51.332Z,67.21
2022-09-28T03:45:54.326Z,69.68
2022-09-28T03:46:51.303Z,62.76
2022-09-28T04:05:24.230Z,72.56
2022-09-28T04:06:25.238Z,70.95
2022-09-28T04:07:28.984Z,61.58
2022-09-28T04:08:24.516Z,65.53
2022-09-28T04:09:24.970Z,60.52
2022-09-28T04:10:27.505Z,69.88
2022-09-28T04:11:34.916Z,69.85
2022-09-28T04:12:24.420Z,67.86
2022-09-28T04:13:27.246Z,65.92
2022-09-28T04:14:24.753Z,72.44
2022-09-28T04:15:24.976Z,67.38
2022-09-28T04:16:23.497Z,69.39
2022-09-28T04:17:24.173Z,64.73
2022-09-28T04:18:23.493Z,63.08
2022-09-28T04:19:24.231Z,65.28
2022-09-28T04:20:23.536Z,76.42
2022-09-28T04:21:24.758Z,62.97
2022-09-28T04:22:24.410Z,72.60
2022-09-28T04:23:24.326Z,72.33
2022-09-28T04:24:24.468Z,68.94
2022-09-28T04:25:23.345Z,70.97
2022-09-28T04:26:23.486Z,71.29
2022-09-28T04:27:23.380Z,67.97
2022-09-28T04:28:23.363Z,66.56
2022-09-28T04:29:23.362Z,70.16
2022-09-28T04:30:23.448Z,74.41
2022-09-28T04:31:23.503Z,67.42
2022-09-28T04:32:25.791Z,71.40
2022-09-28T04:33:24.727Z,72.02
2022-09-28T04:34:29.788Z,73.32
2022-09-28T04:35:24.948Z,74.35
2022-09-28T04:36:24.734Z,75.67
2022-09-28T04:37:24.748Z,65.57
2022-09-28T04:38:48.434Z,70.96
2022-09-28T04:39:26.746Z,74.16
2022-09-28T04:40:23.561Z,66.49
2022-09-28T04:41:26.240Z,72.33
2022-09-28T04:42:25.237Z,75.81
2022-09-28T04:43:24.676Z,72.88
2022-09-28T04:44:26.311Z,64.61
2022-09-28T04:45:28.312Z,76.73
2022-09-28T04:46:24.236Z,67.78
2022-09-28T04:47:24.259Z,75.98
2022-09-28T04:48:23.736Z,78.11
2022-09-28T04:49:23.736Z,73.58
2022-09-28T04:50:23.284Z,69.19
2022-09-28T04:51:23.736Z,71.30
2022-09-28T04:52:23.196Z,74.78
2022-09-28T04:53:23.740Z,73.48
2022-09-28T04:54:23.199Z,71.06
2022-09-28T04:55:24.923Z,68.11
2022-09-28T04:56:25.256Z,70.32
2022-09-28T04:57:23.127Z,69.78
2022-09-28T04:58:24.413Z,73.25
2022-09-28T04:59:25.871Z,74.03
2022-09-28T05:00:24.945Z,65.57
2022-09-28T05:01:24.770Z,72.72
2022-09-28T05:02:24.870Z,72.55
2022-09-28T05:03:24.752Z,72.04
2022-09-28T05:04:26.014Z,72.12
2022-09-28T05:05:24.208Z,71.98
2022-09-28T05:06:23.831Z,71.14
2022-09-28T05:07:24.204Z,71.30
2022-09-28T05:08:23.738Z,70.56
2022-09-28T05:09:23.792Z,76.03
2022-09-28T05:10:23.111Z,73.54
2022-09-28T05:11:23.744Z,72.23
2022-09-28T05:12:23.746Z,73.10
2022-09-28T05:13:23.756Z,72.76
2022-09-28T05:14:24.755Z,73.39
2022-09-28T05:15:25.463Z,69.88
2022-09-28T05:16:23.967Z,74.41
2022-09-28T05:17:58.634Z,73.09
2022-09-28T05:22:13.853Z,73.46
2022-09-28T05:23:16.146Z,75.05
2022-09-28T05:24:15.213Z,74.43
2022-09-28T05:25:16.549Z,74.23
2022-09-28T05:26:15.658Z,71.22
2022-09-28T05:27:14.943Z,74.44
2022-09-28T05:28:14.908Z,73.63
2022-09-28T05:29:15.112Z,76.15
2022-09-28T05:30:16.186Z,71.31
2022-09-28T05:31:16.234Z,66.25
2022-09-28T05:32:15.649Z,73.08
2022-09-28T05:33:15.651Z,68.28
2022-09-28T05:34:15.189Z,77.10
2022-09-28T05:35:16.634Z,73.73
2022-09-28T05:36:16.549Z,73.01
2022-09-28T05:37:15.674Z,75.41
2022-09-28T05:38:15.855Z,75.35
2022-09-28T05:39:15.871Z,72.89
2022-09-28T05:40:14.988Z,76.92
2022-09-28T05:41:18.490Z,74.23
2022-09-28T05:42:15.911Z,76.04
2022-09-28T05:43:17.583Z,75.43
2022-09-28T05:44:15.751Z,74.92
2022-09-28T05:45:14.930Z,73.27
2022-09-28T05:46:17.359Z,72.18
2022-09-28T05:47:15.474Z,63.87
2022-09-28T05:48:15.621Z,73.61
2022-09-28T05:52:13.948Z,75.16
2022-09-28T05:53:21.080Z,74.36
2022-09-28T05:54:12.517Z,74.92
2022-09-28T05:55:12.472Z,75.23
2022-09-28T05:56:13.690Z,69.44
2022-09-28T05:57:14.553Z,68.57
2022-09-28T05:58:13.637Z,65.87
2022-09-28T05:59:13.713Z,74.10
2022-09-28T06:00:13.822Z,72.24
2022-09-28T06:01:15.015Z,67.82
2022-09-28T06:02:14.406Z,70.48
2022-09-28T06:03:14.522Z,73.20
2022-09-28T06:04:14.453Z,72.91
2022-09-28T06:05:13.980Z,73.05
2022-09-28T06:06:14.492Z,68.35
2022-09-28T06:07:14.485Z,69.45
2022-09-28T06:08:13.564Z,67.61
2022-09-28T06:09:14.591Z,65.68
2022-09-28T06:10:13.989Z,65.53
2022-09-28T06:11:13.563Z,74.30
2022-09-28T06:12:14.408Z,71.37
2022-09-28T06:13:15.068Z,72.19
2022-09-28T06:14:13.638Z,71.86
2022-09-28T06:15:13.621Z,69.35
2022-09-28T06:16:14.584Z,72.61
2022-09-28T06:17:14.490Z,70.92
2022-09-28T06:18:13.644Z,68.97
2022-09-28T06:19:14.485Z,75.57
2022-09-28T06:20:13.474Z,68.10
2022-09-28T06:21:13.451Z,67.37
2022-09-28T06:22:13.998Z,70.33
2022-09-28T06:23:14.001Z,71.01
2022-09-28T06:24:13.561Z,70.68
2022-09-28T06:25:14.283Z,67.35
2022-09-28T06:26:13.500Z,66.80
2022-09-28T06:27:13.469Z,72.54
2022-09-28T06:28:13.568Z,70.37
2022-09-28T06:29:18.724Z,71.04
2022-09-28T06:30:15.446Z,72.66
2022-09-28T06:31:14.074Z,65.21
2022-09-28T06:32:13.313Z,69.48
2022-09-28T06:33:13.382Z,73.30
2022-09-28T06:34:13.514Z,69.28
2022-09-28T06:35:13.434Z,74.96
2022-09-28T06:36:13.421Z,74.56
2022-09-28T06:37:13.423Z,70.71
2022-09-28T06:38:14.397Z,73.41
2022-09-28T06:39:14.092Z,59.41
2022-09-28T06:40:14.160Z,75.50
2022-09-28T06:41:13.370Z,65.77
2022-09-28T06:42:13.995Z,71.86
2022-09-28T06:43:13.478Z,67.31
2022-09-28T06:44:13.373Z,67.86
2022-09-28T06:45:14.993Z,67.11
2022-09-28T06:46:14.345Z,65.95
2022-09-28T06:47:15.989Z,72.93
2022-09-28T06:48:14.325Z,76.82
2022-09-28T06:49:16.154Z,70.98
2022-09-28T06:50:16.140Z,75.75
2022-09-28T06:51:13.255Z,72.87
2022-09-28T06:52:16.514Z,69.40
2022-09-28T06:53:13.211Z,73.27
2022-09-28T06:54:13.268Z,68.96
2022-09-28T06:55:14.586Z,69.33
2022-09-28T06:56:13.292Z,70.13
2022-09-28T06:57:13.999Z,67.37
2022-09-28T06:58:15.876Z,70.70
2022-09-28T06:59:14.043Z,62.58
2022-09-28T07:00:13.232Z,71.45
2022-09-28T07:01:13.234Z,68.09
2022-09-28T07:02:15.537Z,74.07
2022-09-28T07:03:15.946Z,71.61
2022-09-28T07:04:14.191Z,67.72
2022-09-28T07:05:16.997Z,72.61
2022-09-28T07:06:13.163Z,71.09
2022-09-28T07:07:13.996Z,63.25
2022-09-28T07:08:13.728Z,70.96
2022-09-28T07:09:30.255Z,69.16
2022-09-28T07:10:17.008Z,72.08
2022-09-28T07:11:14.002Z,65.29
2022-09-28T07:12:13.235Z,69.43
2022-09-28T07:13:33.023Z,69.46
2022-09-28T07:14:32.530Z,69.76
2022-09-28T07:15:15.123Z,63.50
2022-09-28T07:16:13.090Z,64.05
2022-09-28T07:17:14.616Z,73.54
2022-09-28T07:18:14.580Z,72.69
2022-09-28T07:19:13.790Z,63.91
2022-09-28T07:20:18.825Z,70.36
2022-09-28T07:21:28.264Z,61.83
2022-09-28T07:22:18.788Z,71.17
2022-09-28T07:23:19.311Z,66.37
2022-09-28T07:24:15.055Z,65.00
2022-09-28T07:25:13.843Z,67.65
2022-09-28T07:26:12.999Z,69.12
2022-09-28T07:27:13.040Z,61.22
2022-09-28T07:28:13.149Z,70.37
2022-09-28T07:29:12.917Z,70.84
2022-09-28T07:30:13.498Z,71.08
2022-09-28T07:31:15.681Z,67.23
2022-09-28T07:32:15.972Z,65.72
2022-09-28T07:33:13.922Z,70.86
2022-09-28T07:34:13.007Z,65.59
2022-09-28T07:35:13.501Z,63.47
2022-09-28T07:36:14.499Z,62.32
2022-09-28T07:37:12.920Z,72.50
2022-09-28T07:38:12.838Z,71.63
2022-09-28T07:39:12.830Z,67.53
2022-09-28T07:40:13.499Z,70.67
2022-09-28T07:41:12.853Z,65.30
2022-09-28T07:42:12.845Z,66.44
2022-09-28T07:43:12.833Z,74.25
2022-09-28T07:44:12.904Z,67.57
2022-09-28T07:45:12.828Z,71.43
2022-09-28T07:46:13.031Z,67.06
2022-09-28T07:47:12.783Z,70.87
2022-09-28T07:48:14.354Z,67.56
2022-09-28T07:49:13.670Z,67.77
2022-09-28T07:50:13.451Z,67.73
2022-09-28T07:51:12.864Z,70.52
2022-09-28T07:52:12.782Z,67.10
2022-09-28T07:53:13.506Z,71.50
2022-09-28T07:54:14.515Z,66.02
2022-09-28T07:55:12.978Z,69.46
2022-09-28T07:56:12.830Z,65.15
2022-09-28T07:57:13.302Z,70.32
2022-09-28T07:58:13.854Z,68.42
2022-09-28T07:59:13.415Z,69.36
2022-09-28T08:00:12.846Z,68.30
2022-09-28T08:01:12.784Z,67.90
2022-09-28T08:02:13.840Z,60.71
2022-09-28T08:06:19.334Z,70.54
2022-09-28T08:07:10.652Z,66.24
2022-09-28T08:08:12.559Z,63.95
2022-09-28T08:09:11.900Z,62.00
2022-09-28T08:10:12.078Z,62.45
2022-09-28T08:11:12.098Z,65.66
2022-09-28T08:12:11.926Z,72.64
2022-09-28T08:13:12.743Z,64.45
2022-09-28T08:14:12.767Z,67.09
2022-09-28T08:15:13.291Z,68.08
2022-09-28T08:16:13.051Z,68.64
2022-09-28T08:17:11.772Z,67.62
2022-09-28T08:18:12.570Z,61.25
2022-09-28T08:19:12.828Z,68.47
2022-09-28T08:20:12.527Z,60.98
2022-09-28T08:21:12.501Z,65.31
2022-09-28T08:22:13.360Z,66.47
2022-09-28T08:23:11.888Z,59.02
2022-09-28T08:24:11.766Z,67.79
2022-09-28T08:25:11.721Z,66.49
2022-09-28T08:26:15.398Z,66.80
2022-09-28T08:27:13.238Z,66.02
2022-09-28T08:28:12.557Z,68.19
2022-09-28T08:29:11.736Z,65.85
2022-09-28T08:30:13.792Z,70.91
2022-09-28T08:31:12.461Z,72.35
2022-09-28T08:32:11.744Z,66.43
2022-09-28T08:33:12.511Z,68.56
2022-09-28T08:34:11.996Z,64.89
2022-09-28T08:35:11.729Z,61.69
2022-09-28T08:36:11.777Z,60.74
2022-09-28T08:37:12.504Z,63.60
2022-09-28T08:38:13.243Z,65.06
2022-09-28T08:39:11.787Z,67.69
2022-09-28T08:40:12.327Z,59.93
2022-09-28T08:41:11.713Z,68.83
2022-09-28T08:42:11.718Z,65.50
2022-09-28T08:43:11.602Z,65.72
2022-09-28T08:44:11.612Z,64.10
2022-09-28T08:45:11.613Z,71.77
2022-09-28T08:46:11.701Z,68.39
2022-09-28T08:47:11.591Z,69.90
2022-09-28T08:48:11.715Z,66.52
2022-09-28T08:49:24.893Z,63.03
2022-09-28T08:50:13.553Z,69.40
2022-09-28T08:51:12.271Z,67.69
2022-09-28T08:52:11.532Z,66.94
2022-09-28T08:53:12.568Z,66.21
2022-09-28T08:54:12.102Z,65.77
2022-09-28T08:55:11.575Z,68.30
2022-09-28T08:56:11.454Z,67.00
2022-09-28T08:57:11.575Z,66.81
2022-09-28T08:58:11.500Z,71.52
2022-09-28T08:59:11.571Z,68.55
2022-09-28T09:00:12.353Z,65.49
2022-09-28T09:01:12.562Z,68.90
2022-09-28T09:02:12.775Z,65.40
2022-09-28T09:03:11.598Z,69.78
2022-09-28T09:04:12.247Z,66.98
2022-09-28T09:05:11.525Z,69.39
2022-09-28T09:06:14.237Z,69.70
2022-09-28T09:10:09.436Z,65.12
2022-09-28T09:11:10.619Z,66.80
2022-09-28T09:12:10.551Z,66.08
2022-09-28T09:13:10.599Z,65.59
2022-09-28T09:14:10.637Z,68.31
2022-09-28T09:15:10.607Z,72.67
2022-09-28T09:16:10.548Z,64.86
2022-09-28T09:17:11.169Z,73.14
2022-09-28T09:18:10.524Z,65.59
2022-09-28T09:19:10.515Z,70.05
2022-09-28T09:20:10.561Z,60.97
2022-09-28T09:21:10.514Z,61.10
2022-09-28T09:22:10.480Z,68.60
2022-09-28T09:23:10.481Z,66.61
2022-09-28T09:24:10.501Z,70.91
2022-09-28T09:25:10.493Z,70.47
2022-09-28T09:26:10.640Z,67.69
2022-09-28T09:27:10.999Z,65.19
2022-09-28T09:28:10.446Z,63.71
2022-09-28T09:29:10.435Z,62.97
2022-09-28T09:30:10.462Z,66.04
2022-09-28T09:31:10.474Z,67.13
2022-09-28T09:32:10.407Z,62.87
2022-09-28T09:33:10.429Z,68.34
2022-09-28T09:34:10.485Z,70.64
2022-09-28T09:35:10.395Z,63.63
2022-09-28T09:36:10.434Z,62.30
2022-09-28T09:37:10.378Z,64.97
2022-09-28T09:38:11.204Z,67.02
2022-09-28T09:39:10.350Z,71.49
2022-09-28T09:40:10.359Z,66.35
2022-09-28T09:41:10.461Z,69.79
2022-09-28T09:42:11.000Z,70.51
2022-09-28T09:43:10.359Z,69.88
2022-09-28T09:44:10.405Z,63.82
2022-09-28T09:45:10.311Z,63.83
2022-09-28T09:46:10.358Z,70.62
2022-09-28T09:47:10.315Z,71.52
2022-09-28T09:48:10.310Z,67.88
2022-09-28T09:49:10.285Z,68.86
2022-09-28T09:50:10.311Z,66.38
2022-09-28T09:51:10.287Z,67.91
2022-09-28T09:52:10.305Z,65.22
2022-09-28T09:53:10.285Z,70.09
2022-09-28T09:54:10.411Z,70.81
2022-09-28T09:55:10.247Z,65.98
2022-09-28T09:56:10.323Z,68.19
2022-09-28T09:57:10.216Z,70.66
2022-09-28T09:58:10.187Z,71.18
2022-09-28T09:59:10.223Z,64.41
2022-09-28T10:00:10.215Z,62.64
2022-09-28T10:01:10.247Z,69.52
2022-09-28T10:02:11.857Z,68.71
2022-09-28T10:03:11.187Z,68.41
2022-09-28T10:04:12.005Z,69.76
2022-09-28T10:05:10.211Z,69.38
2022-09-28T10:06:10.212Z,69.00
2022-09-28T10:07:10.119Z,66.48
2022-09-28T10:08:10.207Z,61.66
2022-09-28T10:09:10.162Z,68.81
2022-09-28T10:10:10.180Z,59.95
2022-09-28T10:11:10.088Z,69.86
2022-09-28T10:12:10.120Z,70.73
2022-09-28T10:13:10.091Z,69.96
2022-09-28T10:14:10.099Z,68.61
2022-09-28T10:15:10.132Z,71.44
2022-09-28T10:16:10.075Z,70.03
2022-09-28T10:17:10.118Z,69.53
2022-09-28T10:18:10.087Z,62.59
2022-09-28T10:19:10.086Z,68.28
2022-09-28T10:20:10.036Z,68.49
2022-09-28T10:21:10.061Z,69.03
2022-09-28T10:22:10.073Z,69.85
2022-09-28T10:23:10.027Z,66.15
2022-09-28T10:24:09.989Z,66.42
2022-09-28T10:25:10.106Z,67.22
2022-09-28T10:26:10.002Z,71.19
2022-09-28T10:27:09.982Z,68.08
2022-09-28T10:28:09.963Z,61.52
2022-09-28T10:29:09.968Z,67.64
2022-09-28T10:30:09.939Z,71.75
2022-09-28T10:31:09.954Z,71.28
2022-09-28T10:32:09.948Z,68.47
2022-09-28T10:33:09.942Z,61.28
2022-09-28T10:34:09.933Z,69.84
2022-09-28T10:35:09.913Z,70.72
2022-09-28T10:36:09.905Z,65.72
2022-09-28T10:37:09.925Z,71.39
2022-09-28T10:38:09.866Z,73.26
2022-09-28T10:39:09.981Z,67.76
2022-09-28T10:40:09.880Z,65.68
2022-09-28T10:41:09.915Z,66.51
2022-09-28T10:42:09.861Z,71.99
2022-09-28T10:43:09.835Z,67.37
2022-09-28T10:44:09.877Z,71.39
2022-09-28T10:45:09.824Z,69.10
2022-09-28T10:46:09.902Z,70.23
2022-09-28T10:47:09.839Z,68.37
2022-09-28T10:48:09.791Z,63.43
2022-09-28T10:49:09.841Z,69.40
2022-09-28T10:50:09.802Z,69.66
2022-09-28T10:51:09.785Z,68.01
2022-09-28T10:52:09.845Z,61.65
2022-09-28T10:53:09.777Z,67.06
2022-09-28T10:54:09.782Z,70.22
2022-09-28T10:55:09.775Z,62.71
2022-09-28T10:56:10.745Z,72.69
2022-09-28T10:57:13.376Z,68.55
2022-09-28T10:58:10.750Z,68.57
2022-09-28T10:59:09.785Z,68.28
2022-09-28T11:00:09.757Z,67.69
2022-09-28T11:01:10.806Z,65.68
2022-09-28T11:02:10.749Z,68.08
2022-09-28T11:03:09.734Z,71.80
2022-09-28T11:04:10.709Z,69.51
2022-09-28T11:05:09.722Z,69.31
2022-09-28T11:06:09.717Z,71.01
2022-09-28T11:07:09.669Z,72.24
2022-09-28T11:08:09.697Z,66.45
2022-09-28T11:09:09.698Z,69.56
2022-09-28T11:10:09.676Z,72.57
2022-09-28T11:11:09.651Z,70.76
2022-09-28T11:12:09.685Z,67.46
2022-09-28T11:13:10.255Z,69.22
2022-09-28T11:14:09.635Z,62.90
2022-09-28T11:15:09.588Z,68.08
2022-09-28T11:16:09.590Z,69.18
2022-09-28T11:17:09.659Z,71.82
2022-09-28T11:18:09.578Z,68.61
2022-09-28T11:19:09.574Z,67.38
2022-09-28T11:20:09.572Z,66.12
2022-09-28T11:21:12.155Z,56.89
2022-09-28T11:22:13.088Z,64.09
2022-09-28T11:23:11.239Z,70.96
2022-09-28T11:24:09.516Z,70.90
2022-09-28T11:25:09.524Z,67.24
2022-09-28T11:26:09.555Z,68.53
2022-09-28T11:27:09.537Z,69.54
2022-09-28T11:28:09.497Z,61.37
2022-09-28T11:29:09.527Z,68.25
2022-09-28T11:30:09.531Z,71.77
2022-09-28T11:31:09.594Z,62.00
2022-09-28T11:32:12.510Z,67.50
2022-09-28T11:33:11.492Z,64.78
2022-09-28T11:34:09.510Z,72.21
2022-09-28T11:35:09.469Z,70.69
2022-09-28T11:36:09.440Z,70.13
2022-09-28T11:37:09.403Z,69.90
2022-09-28T11:38:09.431Z,70.87
2022-09-28T11:39:09.439Z,70.89
2022-09-28T11:40:09.406Z,73.98
2022-09-28T11:41:09.417Z,71.02
2022-09-28T11:42:12.953Z,60.10
2022-09-28T11:43:13.273Z,67.35
2022-09-28T11:44:09.390Z,70.37
2022-09-28T11:45:09.392Z,68.17
2022-09-28T11:46:10.387Z,70.49
2022-09-28T11:47:09.354Z,69.85
2022-09-28T11:48:09.353Z,71.48
2022-09-28T11:49:09.379Z,67.54
2022-09-28T11:50:09.335Z,70.33
2022-09-28T11:51:09.343Z,71.05
2022-09-28T11:52:09.337Z,74.19
2022-09-28T11:53:09.294Z,70.42
2022-09-28T11:54:09.314Z,69.02
2022-09-28T11:55:09.297Z,68.87
2022-09-28T11:56:09.319Z,69.46
2022-09-28T11:57:09.262Z,74.18
2022-09-28T11:58:09.334Z,71.73
2022-09-28T11:59:09.250Z,68.26
2022-09-28T12:00:09.322Z,69.56
2022-09-28T12:01:09.266Z,68.07
2022-09-28T12:02:09.367Z,70.14
2022-09-28T12:03:09.380Z,73.27
2022-09-28T12:04:09.261Z,72.71
2022-09-28T12:05:09.225Z,70.02
2022-09-28T12:06:09.269Z,69.79
2022-09-28T12:07:09.339Z,69.30
2022-09-28T12:08:09.219Z,73.21
2022-09-28T12:09:09.264Z,72.26
2022-09-28T12:10:09.247Z,68.13
2022-09-28T12:11:09.171Z,69.77
2022-09-28T12:12:09.171Z,71.52
2022-09-28T12:13:09.201Z,70.06
2022-09-28T12:14:09.180Z,68.07
2022-09-28T12:15:09.200Z,70.64
2022-09-28T12:17:11.233Z,70.92
2022-09-28T12:18:09.198Z,68.80
2022-09-28T12:19:09.197Z,67.10
2022-09-28T12:20:09.137Z,70.48
2022-09-28T12:21:09.131Z,71.37
2022-09-28T12:22:09.108Z,67.18
2022-09-28T12:23:09.176Z,68.26
2022-09-28T12:24:09.124Z,68.63
2022-09-28T12:25:09.093Z,69.81
2022-09-28T12:26:09.077Z,72.63
2022-09-28T12:27:09.058Z,67.79
2022-09-28T12:28:09.018Z,70.37
2022-09-28T12:29:09.056Z,68.82
2022-09-28T12:30:09.068Z,70.63
2022-09-28T12:31:09.074Z,69.38
2022-09-28T12:32:09.002Z,65.03
2022-09-28T12:33:09.005Z,65.92
2022-09-28T12:34:08.991Z,69.00
2022-09-28T12:35:08.977Z,69.55
2022-09-28T12:36:09.015Z,72.45
2022-09-28T12:37:08.942Z,68.44
2022-09-28T12:38:08.953Z,69.76
2022-09-28T12:39:19.120Z,73.85
2022-09-28T12:40:10.930Z,68.69
2022-09-28T12:41:08.941Z,75.08
2022-09-28T12:42:08.946Z,74.82
2022-09-28T12:43:08.921Z,68.70
2022-09-28T12:44:08.907Z,75.87
2022-09-28T12:45:08.912Z,76.45
2022-09-28T12:46:12.967Z,74.53
2022-09-28T12:47:09.980Z,73.26
2022-09-28T12:48:08.861Z,70.48
2022-09-28T12:51:10.853Z,73.02
2022-09-28T12:52:08.861Z,75.07
2022-09-28T12:53:08.855Z,71.83
2022-09-28T12:54:08.832Z,77.09
2022-09-28T12:55:08.795Z,75.41
2022-09-28T12:56:09.632Z,69.56
2022-09-28T12:57:08.825Z,77.71
2022-09-28T12:58:41.183Z,72.81
2022-09-28T12:59:08.758Z,74.99
2022-09-28T13:00:08.794Z,73.18
2022-09-28T13:01:08.818Z,73.60
2022-09-28T13:02:08.804Z,78.31
2022-09-28T13:03:08.791Z,75.29
2022-09-28T13:04:41.665Z,69.81
2022-09-28T13:05:08.715Z,67.19
2022-09-28T13:06:42.683Z,78.62
2022-09-28T13:07:08.724Z,71.40
2022-09-28T13:08:08.687Z,73.87
2022-09-28T13:09:08.716Z,74.32
2022-09-28T13:10:09.265Z,72.82
2022-09-28T13:11:08.711Z,74.07
2022-09-28T13:12:08.691Z,72.55
2022-09-28T13:13:08.759Z,73.82
2022-09-28T13:14:08.671Z,67.83
2022-09-28T13:15:08.672Z,73.68
2022-09-28T13:16:08.766Z,69.07
2022-09-28T13:17:08.656Z,75.07
2022-09-28T13:18:08.648Z,73.73
2022-09-28T13:19:08.635Z,74.75
2022-09-28T13:20:08.616Z,74.57
2022-09-28T13:21:08.651Z,76.01
2022-09-28T13:22:08.603Z,74.55
2022-09-28T13:23:08.603Z,73.09
2022-09-28T13:24:21.007Z,75.41
2022-09-28T13:25:10.587Z,72.54
2022-09-28T13:26:08.611Z,70.48
2022-09-28T13:27:08.619Z,67.85
2022-09-28T13:28:08.564Z,70.75
2022-09-28T13:29:08.548Z,72.43
2022-09-28T13:30:08.562Z,72.96
2022-09-28T13:31:08.598Z,73.19
2022-09-28T13:32:08.551Z,71.03
2022-09-28T13:33:08.520Z,65.89
2022-09-28T13:34:08.525Z,69.02
2022-09-28T13:35:08.509Z,67.64
2022-09-28T13:36:08.582Z,75.47
2022-09-28T13:37:08.638Z,70.85
2022-09-28T13:38:09.497Z,73.32
2022-09-28T13:39:08.512Z,62.60
2022-09-28T13:40:08.457Z,66.54
2022-09-28T13:41:08.474Z,70.47
2022-09-28T13:42:08.492Z,72.98
2022-09-28T13:43:08.436Z,76.80
2022-09-28T13:44:08.451Z,74.38
2022-09-28T13:45:08.453Z,72.27
2022-09-28T13:46:08.510Z,72.81
2022-09-28T13:47:08.427Z,71.81